TOP > 外国特許検索

外国特許検索

表示件数 詳細検索
特許の状態
出願国

リセット

該当件数 4717件

No. 出願番号
公報番号
出願国
発明の名称
掲載日
更新日
データ提供機関
1101 2016JP056402 WO 2016140258 世界知的所有権機関(WIPO) IRON-CHROMIUM-ALUMINUM-BASED OXIDE DISPERSION STRENGTHENED STEEL AND METHOD FOR PRODUCING SAME 2016/10/25 2019/02/01 北海道大学
1102 2016JP056706 WO 2016140334 世界知的所有権機関(WIPO) SHAPE-CONTROLLED NANOSHEET AND PRODUCTION METHOD THEREOF 2016/10/25 2019/02/01 東北大学
1103 2016JP057420 WO 2016143826 世界知的所有権機関(WIPO) METHOD FOR DIFFERENTIATING PLURIPOTENT STEM CELLS INTO DESIRED CELL TYPE 2016/10/25 2019/02/01 慶應義塾大学
1104 2016JP057307 WO 2016143808 世界知的所有権機関(WIPO) METHOD FOR PRODUCING SPHEROIDS AND CULTURE MEDIUM USED IN METHOD 2016/10/25 2019/02/01 弘前大学
1105 2016JP051909 WO 2016117698 世界知的所有権機関(WIPO) INFORMATION-PROCESSING DEVICE, INFORMATION-PROCESSING METHOD, PROGRAM, AND NON-TEMPORARY STORAGE MEDIUM 2016/10/25 2019/02/01 情報・システム研究機構 国立遺伝学研究所
1106 2016JP052487 WO 2016121866 世界知的所有権機関(WIPO) DIGITAL HOLOGRAPHY RECORDING DEVICE, DIGITAL HOLOGRAPHY PLAYBACK DEVICE, DIGITAL HOLOGRAPHY RECORDING METHOD, AND DIGITAL HOLOGRAPHY PLAYBACK METHOD 2016/10/25 2019/02/01 関西大学
1107 2016JP051187 WO 2016121540 世界知的所有権機関(WIPO) SPECTROMETRY DEVICE AND SPECTROMETRY METHOD 2016/10/25 2019/02/01 香川大学
1108 2016JP056293 WO 2016147856 世界知的所有権機関(WIPO) POSITIVE ELECTRODE ACTIVE MATERIAL FOR NON-AQUEOUS ELECTROLYTE SECONDARY CELL, METHOD FOR MANUFACTURING SAID POSITIVE ELECTRODE ACTIVE MATERIAL, CELL CONTAINING SAID POSITIVE ELECTRODE ACTIVE MATERIAL, AND METHOD FOR CHARGING CELL 2016/11/11 2019/02/01 静岡大学
1109 2016JP058031 WO 2016148111 世界知的所有権機関(WIPO) SLEEP STAGE ESTIMATION DEVICE, BIOLOGICAL DATA ESTIMATION DEVICE, SLEEP STAGE ESTIMATION METHOD, BIOLOGICAL DATA ESTIMATION METHOD, SLEEP STAGE ESTIMATION PROGRAM, AND BIOLOGICAL DATA ESTIMATION PROGRAM 2016/11/11 2019/02/01 電気通信大学
1110 2016JP059066 WO 2016152882 世界知的所有権機関(WIPO) COLLAGEN FUSION PROTEIN AND DRUG SCREENING METHOD USING SAME 新技術説明会 2016/11/11 2019/02/01 東京工業大学
1111 2016JP058557 WO 2016148249 世界知的所有権機関(WIPO) METHOD FOR PRODUCING ELECTRODE ELEMENT, METHOD FOR PRODUCING ELECTRODE, AND MANUFACTURE OF MEASUREMENT SYSTEM USING SAID ELECTRODE 2016/11/11 2019/02/01 東北大学
1112 2016JP056142 WO 2016152399 世界知的所有権機関(WIPO) ABSORPTION REFRIGERATOR AND DEHUMIDIFIER 2016/11/11 2019/02/01 東京農工大学
1113 2016JP059673 WO 2016158776 世界知的所有権機関(WIPO) STRESS SENSOR, AND STRESS SENSOR SYSTEM 新技術説明会 2016/11/29 2019/02/01 電気通信大学
1114 2016JP059551 WO 2016153019 世界知的所有権機関(WIPO) TRANSPLANT FISH PRODUCTION METHOD, TRANSPLANT FISH, HYBRID FISH SPECIES PRODUCTION METHOD, AND HYBRID FISH SPECIES 2016/11/29 2019/02/01 東京海洋大学
1115 2016JP001869 WO 2016157910 世界知的所有権機関(WIPO) LENGTH MEASURING ELEMENT AND SOLID-STATE IMAGE CAPTURING DEVICE 2016/12/06 2019/02/01 静岡大学
1116 2016JP059515 WO 2016158707 世界知的所有権機関(WIPO) DRUG-CARRYING HYDROGEL FORMULATION AND METHOD FOR PRODUCING SAME 2016/12/21 2019/02/01 京都大学
1117 2016JP052531 WO 2016136374 世界知的所有権機関(WIPO) PHOTOCATALYST STRUCTURE AND PHOTOCELL 2017/01/19 2019/02/01 科学技術振興機構(JST)
1118 2016JP056828 WO 2016143703 世界知的所有権機関(WIPO) BIOMARKER OF DEMENTIA WITH LEWY BODIES 2017/01/19 2019/02/01 新潟大学
1119 2016JP054893 WO 2016147795 世界知的所有権機関(WIPO) NON-INVASIVE BLOOD GLUCOSE LEVEL MEASUREMENT METHOD AND NON-INVASIVE BLOOD GLUCOSE LEVEL MEASUREMENT DEVICE 2017/01/19 2019/02/01 信州大学
1120 2016JP060882 WO 2016159335 世界知的所有権機関(WIPO) GLUCOSE-SENSITIVE CELL PROTECTING AGENT 2017/01/19 2019/02/01 東京大学
1121 2016JP059398 WO 2016152980 世界知的所有権機関(WIPO) OLIGONUCLEOTIDE DERIVATIVE, OLIGONUCLEOTIDE CONSTRUCT USING SAME, AND METHODS FOR PRODUCING THESE 2017/01/19 2019/02/01 岐阜大学
1122 2016JP061420 WO 2016163466 世界知的所有権機関(WIPO) METHOD FOR PRODUCING TRANSFORMED CELL 新技術説明会 2017/01/20 2019/02/01 東京工業大学
1123 2016JP060776 WO 2016159289 世界知的所有権機関(WIPO) INFRARED-TRANSMITTING GLASS SUITABLE FOR MOLD FORMING 新技術説明会 2017/01/20 2019/02/01 京都工芸繊維大学
1124 2016JP060390 WO 2016159077 世界知的所有権機関(WIPO) OPTICAL AMPLIFICATION MODULATION SYSTEM AND OPTICAL RESPONSE ACCELERATING SYSTEM 2017/01/20 2019/02/01 京都工芸繊維大学
1125 2016JP059386 WO 2016158670 世界知的所有権機関(WIPO) COMPOSITION FOR VASCULAR REGENERATION THERAPY, CONTAINING DEDIFFERENTIATED FAT CELLS AS ACTIVE INGREDIENT 新技術説明会 2017/01/20 2019/02/01 日大NUBIC
1126 2016JP054872 WO 2016136620 世界知的所有権機関(WIPO) METHOD FOR PRODUCING COENZYME AND TRANSFORMANT SET FOR COENZYME PRODUCTION 新技術説明会 2017/01/20 2019/02/01 科学技術振興機構(JST)
1127 2016JP060803 WO 2016159301 世界知的所有権機関(WIPO) THERAPEUTIC AGENT FOR CHRONIC MYELOID LEUKEMIA 2017/02/16 2019/02/01 広島大学
1128 2016JP052707 WO 2016121946 世界知的所有権機関(WIPO) MULTIFOCAL SPECTROSCOPIC MEASUREMENT DEVICE, AND OPTICAL SYSTEM FOR MULTIFOCAL SPECTROSCOPIC MEASUREMENT DEVICE 2017/03/13 2019/02/01 科学技術振興機構(JST)
1129 2016JP053558 WO 2016136433 世界知的所有権機関(WIPO) ELECTROCHEMICAL REDUCTION OF CARBON DIOXIDE 2017/03/13 2019/02/01 科学技術振興機構(JST)
1130 2016JP057073 WO 2016158230 世界知的所有権機関(WIPO) SKYRMION GENERATION DEVICE, SKYRMION GENERATION METHOD, AND MAGNETIC MEMORY DEVICE 2017/03/13 2019/02/01 科学技術振興機構(JST)
1131 2016JP054941 WO 2016133213 世界知的所有権機関(WIPO) AMMONIA SYNTHESIS CATALYST AND METHOD FOR PRODUCING SAME 新技術説明会 2017/03/23 2019/02/01 大分大学
1132 2016JP053791 WO 2016129590 世界知的所有権機関(WIPO) WIRELESS COMMUNICATION DEVICE AND OPERATION METHOD 2017/03/23 2019/02/01 電気通信大学
1133 2016JP057170 WO 2016143784 世界知的所有権機関(WIPO) METHOD FOR MANUFACTURING PLATINUM CATALYST, AND FUEL CELL USING SAME 2017/03/23 2019/02/01 同志社大学
1134 2016JP059253 WO 2016158624 世界知的所有権機関(WIPO) BIOLOGICAL INFORMATION MEASUREMENT DEVICE, BIOLOGICAL INFORMATION MEASUREMENT METHOD, BIOLOGICAL INFORMATION DISPLAY DEVICE AND BIOLOGICAL INFORMATION DISPLAY METHOD 2017/04/26 2019/02/01 東北大学
1135 2016JP057497 WO 2016158281 世界知的所有権機関(WIPO) IMAGE DISPLAY DEVICE, PROCESSING METHOD, DETECTING METHOD, AND PROCESSING DEVICE 2017/04/26 2019/02/01 東北大学
1136 2016JP057168 WO 2016158244 世界知的所有権機関(WIPO) RADIO DEVICE, DETECTING DEVICE, DETECTING SYSTEM, AND RADIO COMMUNICATION METHOD 2017/04/26 2019/02/01 東北大学
1137 2018JP005604 WO 2018147473 世界知的所有権機関(WIPO) THREE-DIMENSIONAL OBJECT INFORMATION MEASURING DEVICE 新技術説明会 2018/06/28 2019/02/01 京都工芸繊維大学
1138 2018JP007246 WO 2018159606 世界知的所有権機関(WIPO) PHOTONIC CRYSTAL LASER 新技術説明会 2018/06/28 2019/02/01 京都工芸繊維大学
1139 2014JP072779 WO 2015030191 世界知的所有権機関(WIPO) MICROWAVE PLASMA PROCESSING DEVICE 新技術説明会 2018/09/14 2019/02/01 産総研
1140 2016JP082629 WO 2017078082 世界知的所有権機関(WIPO) PRODUCTION METHOD AND PRODUCTION DEVICE FOR NITROGEN COMPOUND 新技術説明会 2018/09/14 2019/02/01 産総研
1141 2018JP002107 WO 2018139483 世界知的所有権機関(WIPO) STRETCHABLE RAISED FIBER ELECTRODE AND MANUFACTURING METHOD THEREFOR 新技術説明会 2018/09/14 2019/02/01 産総研
1142 2013JP007238 WO 2014103203 世界知的所有権機関(WIPO) MOLECULE LIBRARY CONSTRUCTED ON THE BASIS OF BACKBONE STRUCTURE OF MICROPROTEIN 2018/09/18 2019/02/01 産総研
1143 2017JP021332 WO 2017213226 世界知的所有権機関(WIPO) POLYMER COMPOUND AND METHOD FOR MANIPULATING CELL USING SAME 2018/09/18 2019/02/01 産総研
1144 2018JP010869 WO 2018180725 世界知的所有権機関(WIPO) POWER TRANSMISSION DEVICE AND ORAL CAVITY TREATMENT DEVICE 新技術説明会 2018/10/02 2019/02/01 鹿児島大学
1145 20167028290 20160131112 大韓民国 Activator for mesenchymal stem cells activated mesenchymal stem cells and method for producing same 2018/10/30 2019/02/01 札幌医科大学
1146 15761691 3118307 欧州特許庁(EPO) Activator for mesenchymal stem cells, activated mesenchymal stem cells, and method for producing same 2018/10/30 2019/02/01 札幌医科大学
1147 2017JP023218 WO 2017222051 世界知的所有権機関(WIPO) PRODUCTION METHOD FOR TRANSFORMATION-SENSITIVE BARLEY 2018/11/01 2019/02/01 岡山大学
1148 2017JP024671 WO 2018012369 世界知的所有権機関(WIPO) POLYCRYSTALLINE MAGNESIUM SILICIDE AND USE THEREOF 2018/11/01 2019/02/01 東京理科大学
1149 2017JP025436 WO 2018012546 世界知的所有権機関(WIPO) MANUFACTURING METHOD FOR SEMICONDUCTOR LAMINATED FILM, AND SEMICONDUCTOR LAMINATED FILM 2018/11/01 2019/02/01 東京農工大学
1150 2017JP025817 WO 2018016451 世界知的所有権機関(WIPO) BROAD-SPECTRUM METHOD FOR DETERMINING E. COLI FLAGELLAR ANTIGEN TYPE USING PCR METHOD 2018/11/01 2019/02/01 宮崎大学
1151 2018JP001438 WO 2018135592 世界知的所有権機関(WIPO) COPOLYMER CONTAINING CYCLIC NITROXIDE RADICAL AND TRIALKOXYSILYL IN SIDE CHAIN, AND USE THEREOF 2018/11/01 2019/02/01 筑波大学
1152 2017JP037881 WO 2018074556 世界知的所有権機関(WIPO) TEXTURE EXPRESSION EVALUATION DEVICE, TEXTURE EXPRESSION EVALUATION METHOD, TEXTURE EXPRESSION EVALUATION PROGRAM, AND TEXTURE EXPRESSION RESPONSE SHEET 新技術説明会 2018/11/01 2019/02/01 電気通信大学
1153 2017JP042943 WO 2018101375 世界知的所有権機関(WIPO) METHOD FOR DETECTING HUMAN GENOMIC DNA 2018/11/01 2019/02/01 秋田大学
1154 2017JP047099 WO 2018124235 世界知的所有権機関(WIPO) METHOD FOR DETECTING MITOCHONDRIAL tRNA MODIFICATION 2018/11/01 2019/02/01 熊本大学
1155 2017JP047305 WO 2018124292 世界知的所有権機関(WIPO) SKELETAL MUSCLE CELLS AND METHOD FOR INDUCING SAME 2018/11/02 2019/02/01 京都府立医科大学
1156 2018JP001402 WO 2018147032 世界知的所有権機関(WIPO) FLUIDIC CHIP FOR CELL CULTURE USE, CULTURE VESSEL, AND CULTURE METHOD 新技術説明会 2018/11/02 2019/02/01 大阪府立大学
1157 2017JP047414 WO 2018117273 世界知的所有権機関(WIPO) DATA CREATION METHOD AND DATA USE METHOD 新技術説明会 2018/11/02 2019/02/01 筑波大学
1158 2017JP043675 WO 2018150689 世界知的所有権機関(WIPO) CELL CULTURE VESSEL, SAMPLE CELL FOR OBSERVATION, AND CELL CULTURE METHOD 新技術説明会 2018/11/02 2019/02/01 大阪府立大学
1159 2017JP044995 WO 2018110678 世界知的所有権機関(WIPO) NUCLEOSIDE DERIVATIVE AND USE THEREFOR 2018/11/02 2019/02/01 岐阜大学
1160 2018JP002876 WO 2018143164 世界知的所有権機関(WIPO) PLASMA GENERATING DEVICE, PLASMA SPUTTERING DEVICE, AND PLASMA SPUTTERING METHOD 2018/11/02 2019/02/01 東北大学
1161 2018JP007268 WO 2018159612 世界知的所有権機関(WIPO) VOICE QUALITY CONVERSION DEVICE, VOICE QUALITY CONVERSION METHOD AND PROGRAM 2018/11/02 2019/02/01 電気通信大学
1162 2018JP002546 WO 2018139601 世界知的所有権機関(WIPO) METHOD AND KIT FOR CRYOPRESERVING XENOPUS LAEVIS EGG EXTRACT, CONCENTRATED XENOPUS LAEVIS EGG EXTRACT, AND METHOD FOR ANALYZING CELL CYCLE 2018/11/02 2019/02/01 情報・システム研究機構 国立遺伝学研究所
1163 2018JP004707 WO 2018147439 世界知的所有権機関(WIPO) AGENT FOR INDUCING STRESS TOLERANCE IN PLANTS 2018/11/02 2019/02/01 静岡大学
1164 2018JP004708 WO 2018147440 世界知的所有権機関(WIPO) AGENT FOR INDUCING OSMOTIC PRESSURE STRESS TOLERANCE IN PLANTS, AND METHOD FOR ALLEVIATING DRYING STRESS 2018/11/02 2019/02/01 静岡大学
1165 2018JP001621 WO 2018135627 世界知的所有権機関(WIPO) ELECTROLYTE SOLUTION FOR POTASSIUM ION BATTERIES, POTASSIUM ION BATTERY, ELECTROLYTE SOLUTION FOR POTASSIUM ION CAPACITORS, AND POTASSIUM ION CAPACITOR 2018/11/02 2019/02/01 東京理科大学
1166 2018JP001540 WO 2018135611 世界知的所有権機関(WIPO) METHOD AND DEVICE FOR FORMING ELECTRODE CATALYST LAYER BY ELECTROSPRAY METHOD 2018/11/02 2019/02/01 山梨大学
1167 2018JP002476 WO 2018139580 世界知的所有権機関(WIPO) ELECTRODE COMPOSITION, ELECTRODE, PRODUCTION METHOD FOR SAID ELECTRODE, AND BATTERY 2018/11/02 2019/02/01 東京都立大学
1168 2018JP001290 WO 2018135552 世界知的所有権機関(WIPO) PLANETARY GEAR DEVICE 2018/11/02 2019/02/01 横浜国立大学
1169 2018JP000887 WO 2018135449 世界知的所有権機関(WIPO) ANTIVIRAL DRUG FOR SEVERE FEVER WITH THROMBOCYTOPENIA SYNDROME 2018/11/02 2019/02/01 鹿児島大学
1170 2018JP001585 WO 2018142968 世界知的所有権機関(WIPO) ELECTROLYTE SOLUTION, SECONDARY BATTERY AND METHOD FOR PRODUCING ELECTROLYTE SOLUTION 2018/11/02 2019/02/01 関西大学
1171 2017JP046103 WO 2018131430 世界知的所有権機関(WIPO) METHOD FOR PRODUCING ORGANOSILICON COMPOUND BY HYDROSILYLATION WITH METALLIC-ELEMENT-CONTAINING NANOPARTICLES 2018/11/02 2019/02/01 関西大学
1172 2018JP005305 WO 2018151225 世界知的所有権機関(WIPO) MUSCLE DIFFERENTIATION PROMOTER, MUSCLE DIFFERENTIATION PROMOTION METHOD, MUSCLE-DIFFERENTIATION-PROMOTING OLIGO DNA, ENHANCER, AND OLIGO DNA 2018/11/02 2019/02/01 信州大学
1173 2018JP005910 WO 2018151311 世界知的所有権機関(WIPO) COMPOSITION INCLUDING LIQUID DYE, FILM, METHOD OF PRODUCING FILM, CHEMICAL SENSOR, LIQUID DYE, METHOD OF PRODUCING LIQUID DYE, DEVICE OR KIT FOR SIMPLIFIED INSPECTION (DRUG DISCOVERY AND/OR DIAGNOSTIC ANALYSIS), AND THIN FILM LIGHT-EMITTING MATERIAL 2018/11/02 2019/02/01 大阪府立大学
1174 2018JP004734 WO 2018159272 世界知的所有権機関(WIPO) TIME-RESOLVED PHOTOEMISSION ELECTRON MICROSCOPE DEVICE AND METHOD FOR ACQUIRING CARRIER DYNAMICS IMAGE USING SAID DEVICE 2018/11/02 2019/02/01 東京工業大学
1175 2017JP039997 WO 2018084297 世界知的所有権機関(WIPO) METHOD AND APPARATUS FOR PRODUCING NANOCARBON MATERIAL FILM 新技術説明会 2018/11/02 2019/02/01 産総研
1176 2018JP000577 WO 2018131673 世界知的所有権機関(WIPO) NOVEL TISSUE REGENERATION MATERIAL AND METHOD FOR PRODUCING SAME 2018/11/02 2019/02/01 東京都立大学
1177 2018JP001031 WO 2018131719 世界知的所有権機関(WIPO) SHEET FOR TOTAL HEAT EXCHANGE ELEMENT AND METHOD FOR PRODUCING SHEET FOR TOTAL HEAT EXCHANGE ELEMENT 新技術説明会 2018/11/02 2019/02/01 北海道大学
1178 2018JP000531 WO 2018131662 世界知的所有権機関(WIPO) PROPHYLACTIC AND/OR THERAPEUTIC AGENT FOR DISEASES ASSOCIATED WITH AMPA RECEPTORS 2018/11/02 2019/02/01 横浜市立大学
1179 2018JP001356 WO 2018135572 世界知的所有権機関(WIPO) DEVICE FOR EVALUATING CHEMICAL SUBSTANCES AND METHOD FOR EVALUATING CHEMICAL SUBSTANCES 2018/11/02 2019/02/01 名古屋市立大学
1180 2017JP041287 WO 2018131288 世界知的所有権機関(WIPO) ELECTRONIC CIRCUIT, IMAGING CIRCUIT, AND DETECTION/LIGHT-RECEPTION METHOD 新技術説明会 2018/11/02 2019/02/01 北海道大学
1181 2018JP011173 WO 2018174088 世界知的所有権機関(WIPO) COMMUNICATION ANALYSIS DEVICE, MEASUREMENT/FEEDBACK DEVICE USED THEREFOR, AND INTERACTION DEVICE 2018/11/02 2019/02/01 東京工業大学
1182 2018JP006466 WO 2018155557 世界知的所有権機関(WIPO) RARE EARTH COMPLEX AND LIGHT EMITTING ELEMENT 新技術説明会 2018/11/02 2019/02/01 北海道大学
1183 2018JP007608 WO 2018159706 世界知的所有権機関(WIPO) MICROOBJECT COLLECTING DEVICE, COLLECTING CONTAINER USED FOR SAME, AND MICROOBJECT COLLECTING METHOD 2018/11/02 2019/02/01 大阪府立大学
1184 2018JP006179 WO 2018155484 世界知的所有権機関(WIPO) PHOSPHINE OXIDE COMPOUND, RARE EARTH COMPLEX, AND LIGHT-EMITTING MATERIAL 2018/11/02 2019/02/01 北海道大学
1185 2018JP011172 WO 2018174087 世界知的所有権機関(WIPO) MAGNESIUM SECONDARY BATTERY AND NEGATIVE ELECTRODE WITH INORGANIC MATERIAL FOR MAGNESIUM SECONDARY BATTERIES 新技術説明会 2018/11/02 2019/02/01 静岡大学
1186 2018JP007201 WO 2018159594 世界知的所有権機関(WIPO) METHANE GAS RECOVERY METHOD, LOW CARBON DIOXIDE EMISSION POWER GENERATION METHOD, METHANE GAS RECOVERY SYSTEM, AND LOW CARBON DIOXIDE EMISSION POWER GENERATION SYSTEM 2018/11/02 2019/02/01 東北大学
1187 2018JP005849 WO 2018151307 世界知的所有権機関(WIPO) MAINTENANCE CULTURE OF INTESTINAL STEM CELLS DERIVED FROM INDUCED PLURIPOTENT STEM CELLS 2018/11/02 2019/02/01 名古屋市立大学
1188 2017JP044125 WO 2018146934 世界知的所有権機関(WIPO) HAPTIC FEEDBACK GENERATING DEVICE 2018/11/02 2019/02/01 北海道大学
1189 2018JP007541 WO 2018159689 世界知的所有権機関(WIPO) METHOD FOR OBSERVING INNER STRUCTURE OF CERAMIC, METHOD FOR PRODUCING CERAMIC, ANALYSIS SYSTEM, AND SYSTEM FOR PRODUCING CERAMIC 新技術説明会 2018/11/02 2019/02/01 横浜国立大学
1190 2018JP006589 WO 2018155596 世界知的所有権機関(WIPO) LEARNING DEVICE FOR MICE, LEARNING SYSTEM FOR MICE, AND LEANING PROGRAM FOR MICE 2018/11/02 2019/02/01 新潟大学
1191 2018JP013534 WO 2018181858 世界知的所有権機関(WIPO) COMPOSITE MATERIAL, AND METHOD FOR MANUFACTURING SAME 2018/11/02 2019/02/01 東北大学
1192 2018JP013970 WO 2018182013 世界知的所有権機関(WIPO) HEATING-TYPE LIGHT SOURCE 2018/11/02 2019/02/01 横浜国立大学
1193 2018JP008480 WO 2018168562 世界知的所有権機関(WIPO) TRANSDUCER ARRAY, PHOTOACOUSTIC PROBE, AND PHOTOACOUSTIC MEASURING DEVICE 2018/11/02 2019/02/01 東北大学
1194 2018JP009285 WO 2018173811 世界知的所有権機関(WIPO) RADIOACTIVE FINE PARTICLE MANUFACTURING SYSTEM, AND RADIOACTIVE FINE PARTICLE MANUFACTURING METHOD 新技術説明会 2018/11/02 2019/02/01 弘前大学
1195 2018JP004786 WO 2018168293 世界知的所有権機関(WIPO) FIXED-WEIGHTING-CODE LEARNING DEVICE 2018/11/05 2019/02/01 北海道大学
1196 2018JP008991 WO 2018164225 世界知的所有権機関(WIPO) NOVEL SUPRAMOLECULAR COMPOUND 新技術説明会 2018/11/05 2019/02/01 熊本大学
1197 2018JP007693 WO 2018168483 世界知的所有権機関(WIPO) VASCULAR BUNDLE LIQUID FLOW RATE SENSOR AND METHOD FOR MANUFACTURING VASCULAR BUNDLE LIQUID FLOW RATE SENSOR 2018/11/05 2019/02/01 香川大学
1198 2018JP008615 WO 2018164133 世界知的所有権機関(WIPO) CELL SORTING METHOD 2018/11/05 2019/02/01 横浜市立大学
1199 2018JP009499 WO 2018168766 世界知的所有権機関(WIPO) RADIATION THERAPY APPARATUS 2018/11/05 2019/02/01 北海道大学
1200 2018JP008247 WO 2018164034 世界知的所有権機関(WIPO) FIXATOR 新技術説明会 2018/11/05 2019/02/01 山梨大学

(12/48ページ)

PAGE TOP